createdAt,value
2023-06-11T00:00:21.611Z,2.40
2023-06-11T00:02:55.369Z,2.80
2023-06-11T00:05:23.728Z,3.25
2023-06-11T00:07:51.495Z,2.40
2023-06-11T00:10:19.585Z,2.97
2023-06-11T00:12:48.716Z,2.85
2023-06-11T00:15:16.740Z,3.08
2023-06-11T00:17:44.642Z,3.25
2023-06-11T00:20:12.973Z,3.45
2023-06-11T00:22:41.732Z,2.95
2023-06-11T00:25:11.851Z,3.05
2023-06-11T00:27:39.940Z,3.03
2023-06-11T00:30:09.678Z,3.42
2023-06-11T00:32:37.867Z,3.80
2023-06-11T00:35:08.281Z,3.95
2023-06-11T00:37:37.009Z,3.72
2023-06-11T00:40:05.722Z,3.20
2023-06-11T00:42:34.743Z,3.35
2023-06-11T00:45:04.644Z,3.65
2023-06-11T00:47:35.190Z,3.25
2023-06-11T00:50:05.451Z,3.75
2023-06-11T00:52:33.341Z,3.58
2023-06-11T00:55:01.740Z,3.83
2023-06-11T00:57:29.563Z,3.65
2023-06-11T00:59:58.221Z,3.03
2023-06-11T01:02:33.602Z,3.10
2023-06-11T01:05:05.745Z,3.42
2023-06-11T01:07:37.379Z,2.97
2023-06-11T01:10:05.927Z,3.45
2023-06-11T01:12:34.141Z,3.55
2023-06-11T01:15:02.449Z,3.45
2023-06-11T01:17:35.690Z,4.03
2023-06-11T01:20:14.180Z,4.18
2023-06-11T01:22:59.264Z,4.18
2023-06-11T01:25:32.923Z,3.92
2023-06-11T01:28:05.910Z,3.70
2023-06-11T01:30:37.028Z,3.58
2023-06-11T01:33:06.871Z,4.10
2023-06-11T01:35:35.530Z,4.30
2023-06-11T01:38:04.040Z,3.58
2023-06-11T01:40:32.920Z,3.85
2023-06-11T01:43:03.316Z,3.47
2023-06-11T01:45:33.757Z,3.30
2023-06-11T01:48:02.100Z,4.07
2023-06-11T01:50:29.963Z,3.13
2023-06-11T01:52:57.763Z,3.35
2023-06-11T01:55:25.586Z,3.63
2023-06-11T01:57:53.355Z,3.58
2023-06-11T02:00:23.079Z,3.45
2023-06-11T02:02:51.178Z,3.67
2023-06-11T02:05:19.152Z,3.38
2023-06-11T02:07:47.441Z,3.42
2023-06-11T02:10:15.381Z,3.70
2023-06-11T02:12:43.208Z,3.35
2023-06-11T02:15:11.821Z,4.20
2023-06-11T02:17:41.250Z,3.88
2023-06-11T02:20:10.278Z,4.25
2023-06-11T02:22:38.044Z,3.30
2023-06-11T02:25:06.605Z,3.67
2023-06-11T02:27:34.485Z,3.72
2023-06-11T02:30:02.460Z,2.80
2023-06-11T02:32:30.473Z,3.25
2023-06-11T02:34:59.628Z,3.60
2023-06-11T02:37:27.446Z,4.00
2023-06-11T02:39:55.202Z,3.78
2023-06-11T02:42:22.928Z,3.30
2023-06-11T02:44:50.647Z,4.30
2023-06-11T02:47:18.469Z,3.15
2023-06-11T02:49:46.383Z,3.85
2023-06-11T02:52:15.629Z,3.22
2023-06-11T02:54:43.374Z,3.45
2023-06-11T02:57:11.130Z,3.10
2023-06-11T02:59:38.882Z,3.70
2023-06-11T03:02:07.139Z,3.65
2023-06-11T03:04:34.942Z,3.08
2023-06-11T03:07:02.703Z,4.28
2023-06-11T03:09:31.800Z,3.88
2023-06-11T03:11:59.529Z,3.70
2023-06-11T03:14:28.231Z,4.30
2023-06-11T03:16:56.045Z,3.40
2023-06-11T03:19:23.785Z,3.47
2023-06-11T03:21:51.608Z,3.80
2023-06-11T03:24:19.480Z,4.22
2023-06-11T03:26:48.691Z,3.85
2023-06-11T03:29:16.461Z,3.28
2023-06-11T03:31:44.911Z,4.13
2023-06-11T03:34:12.779Z,4.43
2023-06-11T03:36:40.653Z,4.13
2023-06-11T03:39:08.420Z,5.00
2023-06-11T03:41:36.240Z,4.22
2023-06-11T03:44:05.717Z,3.20
2023-06-11T03:46:33.601Z,3.00
2023-06-11T03:49:02.399Z,2.97
2023-06-11T03:51:30.238Z,4.15
2023-06-11T03:53:58.000Z,3.63
2023-06-11T03:56:25.923Z,4.63
2023-06-11T03:58:53.639Z,4.38
2023-06-11T04:01:22.888Z,3.60
2023-06-11T04:03:50.744Z,4.00
2023-06-11T04:06:20.004Z,3.85
2023-06-11T04:08:47.815Z,3.58
2023-06-11T04:11:15.534Z,3.15
2023-06-11T04:13:43.386Z,3.15
2023-06-11T04:16:11.099Z,3.30
2023-06-11T04:18:40.154Z,3.92
2023-06-11T04:21:07.953Z,3.80
2023-06-11T04:23:36.120Z,3.60
2023-06-11T04:26:03.977Z,3.67
2023-06-11T04:28:31.749Z,3.75
2023-06-11T04:30:59.673Z,3.47
2023-06-11T04:33:33.689Z,3.75
2023-06-11T04:36:06.257Z,3.90
2023-06-11T04:38:34.174Z,4.00
2023-06-11T04:41:03.572Z,3.30
2023-06-11T04:43:34.558Z,3.65
2023-06-11T04:46:05.224Z,2.65
2023-06-11T04:48:34.115Z,3.53
2023-06-11T04:51:05.429Z,3.50
2023-06-11T04:53:38.278Z,2.90
2023-06-11T04:58:34.137Z,3.65
2023-06-11T05:01:02.176Z,3.00
2023-06-11T05:03:33.009Z,3.58
2023-06-11T05:06:03.205Z,3.67
2023-06-11T05:08:33.632Z,3.65
2023-06-11T05:11:01.418Z,3.63
2023-06-11T05:13:29.497Z,3.40
2023-06-11T05:15:58.345Z,3.65
2023-06-11T05:18:28.041Z,4.03
2023-06-11T05:20:56.168Z,3.22
2023-06-11T05:23:30.239Z,3.60
2023-06-11T05:26:02.852Z,3.53
2023-06-11T05:28:30.715Z,3.38
2023-06-11T05:31:00.559Z,3.17
2023-06-11T05:33:29.429Z,3.55
2023-06-11T05:35:57.186Z,3.55
2023-06-11T05:38:25.679Z,3.97
2023-06-11T05:40:53.476Z,3.55
2023-06-11T05:43:24.224Z,3.03
2023-06-11T05:45:52.116Z,3.70
2023-06-11T05:48:20.013Z,3.65
2023-06-11T05:50:47.777Z,4.53
2023-06-11T05:53:15.518Z,3.17
2023-06-11T05:55:43.287Z,3.20
2023-06-11T05:58:11.157Z,4.93
2023-06-11T06:00:40.276Z,3.80
2023-06-11T06:03:08.134Z,4.18
2023-06-11T06:05:36.010Z,3.70
2023-06-11T06:08:03.932Z,3.40
2023-06-11T06:10:31.669Z,3.45
2023-06-11T06:12:59.470Z,3.67
2023-06-11T06:15:27.213Z,3.03
2023-06-11T06:17:56.378Z,3.15
2023-06-11T06:20:24.219Z,3.45
2023-06-11T06:22:51.946Z,2.90
2023-06-11T06:25:19.791Z,3.83
2023-06-11T06:27:47.543Z,4.22
2023-06-11T06:30:16.300Z,3.63
2023-06-11T06:32:44.533Z,3.10
2023-06-11T06:35:13.974Z,3.15
2023-06-11T06:37:41.782Z,3.40
2023-06-11T06:40:12.604Z,2.67
2023-06-11T06:42:40.562Z,2.22
2023-06-11T06:45:09.798Z,2.40
2023-06-11T06:47:37.874Z,2.55
2023-06-11T06:50:07.244Z,2.85
2023-06-11T06:52:36.344Z,1.92
2023-06-11T06:55:04.374Z,2.13
2023-06-11T06:57:32.157Z,2.22
2023-06-11T07:00:00.245Z,2.13
2023-06-11T07:02:28.074Z,2.03
2023-06-11T07:04:55.869Z,2.70
2023-06-11T07:07:25.512Z,2.20
2023-06-11T07:09:54.741Z,1.58
2023-06-11T07:12:22.537Z,1.83
2023-06-11T07:14:50.322Z,2.22
2023-06-11T07:17:19.375Z,1.85
2023-06-11T07:19:47.152Z,1.90
2023-06-11T07:22:14.903Z,1.95
2023-06-11T07:24:47.700Z,2.45
2023-06-11T07:27:17.085Z,2.60
2023-06-11T07:29:44.866Z,1.85
2023-06-11T07:32:12.594Z,2.00
2023-06-11T07:34:41.199Z,2.20
2023-06-11T07:37:09.597Z,2.10
2023-06-11T07:39:37.362Z,2.15
2023-06-11T07:42:06.526Z,2.20
2023-06-11T07:44:35.722Z,2.35
2023-06-11T07:47:03.563Z,3.30
2023-06-11T07:49:31.429Z,2.25
2023-06-11T07:51:59.169Z,2.00
2023-06-11T07:54:26.978Z,2.42
2023-06-11T07:56:54.733Z,2.20
2023-06-11T07:59:22.630Z,1.80
2023-06-11T08:01:52.095Z,1.65
2023-06-11T08:04:19.851Z,2.05
2023-06-11T08:06:47.607Z,1.67
2023-06-11T08:09:15.422Z,2.05
2023-06-11T08:11:43.914Z,2.10
2023-06-11T08:14:11.685Z,1.73
2023-06-11T08:16:39.522Z,2.20
2023-06-11T08:19:08.599Z,1.80
2023-06-11T08:21:36.454Z,1.88
2023-06-11T08:24:04.816Z,1.55
2023-06-11T08:26:32.713Z,1.60
2023-06-11T08:29:01.189Z,1.10
2023-06-11T08:31:29.288Z,1.50
2023-06-11T08:33:57.097Z,1.65
2023-06-11T08:36:26.922Z,1.95
2023-06-11T08:38:54.678Z,1.45
2023-06-11T08:41:23.376Z,1.67
2023-06-11T08:43:51.261Z,1.13
2023-06-11T08:46:24.416Z,1.10
2023-06-11T08:48:59.975Z,2.13
2023-06-11T08:51:36.270Z,1.48
2023-06-11T08:54:04.200Z,1.58
2023-06-11T08:56:31.970Z,1.65
2023-06-11T08:59:01.757Z,1.83
2023-06-11T09:01:31.168Z,1.73
2023-06-11T09:03:59.168Z,1.80
2023-06-11T09:06:27.673Z,1.55
2023-06-11T09:09:01.307Z,1.75
2023-06-11T09:11:36.511Z,1.63
2023-06-11T09:14:05.230Z,1.58
2023-06-11T09:16:41.193Z,1.40
2023-06-11T09:19:10.959Z,1.90
2023-06-11T09:21:39.283Z,1.40
2023-06-11T09:24:11.919Z,2.53
2023-06-11T09:26:39.716Z,1.13
2023-06-11T09:29:07.536Z,1.05
2023-06-11T09:31:35.374Z,1.38
2023-06-11T09:34:04.471Z,1.33
2023-06-11T09:36:33.279Z,1.33
2023-06-11T09:39:01.782Z,1.52
2023-06-11T09:41:31.415Z,1.63
2023-06-11T09:44:01.609Z,1.02
2023-06-11T09:46:29.792Z,1.33
2023-06-11T09:48:58.018Z,2.35
2023-06-11T09:51:26.274Z,1.05
2023-06-11T09:53:54.878Z,1.40
2023-06-11T09:56:23.094Z,1.35
2023-06-11T09:58:53.071Z,1.45
2023-06-11T10:01:21.524Z,1.23
2023-06-11T10:03:49.467Z,1.23
2023-06-11T10:06:26.601Z,1.88
2023-06-11T10:08:57.880Z,1.40
2023-06-11T10:11:27.022Z,1.20
2023-06-11T10:14:00.737Z,1.20
2023-06-11T10:16:29.871Z,0.90
2023-06-11T10:19:07.159Z,1.20
2023-06-11T10:21:37.806Z,1.33
2023-06-11T10:24:06.181Z,1.60
2023-06-11T10:26:37.520Z,1.30
2023-06-11T10:29:12.761Z,1.42
2023-06-11T10:31:43.147Z,1.88
2023-06-11T10:34:15.550Z,0.82
2023-06-11T10:36:43.453Z,1.33
2023-06-11T10:39:12.545Z,1.27
2023-06-11T10:41:40.927Z,1.90
2023-06-11T10:44:12.207Z,1.55
2023-06-11T10:46:48.372Z,1.17
2023-06-11T10:49:16.647Z,1.40
2023-06-11T10:51:44.447Z,1.00
2023-06-11T10:54:12.263Z,0.82
2023-06-11T10:56:40.031Z,1.00
2023-06-11T10:59:10.304Z,1.02
2023-06-11T11:01:39.566Z,1.50
2023-06-11T11:04:07.737Z,1.10
2023-06-11T11:06:38.080Z,0.90
2023-06-11T11:09:05.902Z,1.27
2023-06-11T11:11:34.936Z,1.48
2023-06-11T11:14:04.692Z,1.33
2023-06-11T11:16:32.631Z,4.43
2023-06-11T11:19:01.831Z,1.58
2023-06-11T11:21:30.780Z,1.10
2023-06-11T11:23:58.752Z,1.17
2023-06-11T11:26:27.631Z,0.85
2023-06-11T11:28:55.573Z,0.90
2023-06-11T11:31:23.667Z,1.17
2023-06-11T11:33:51.842Z,1.55
2023-06-11T11:36:21.066Z,1.30
2023-06-11T11:38:49.228Z,1.20
2023-06-11T11:41:17.032Z,1.60
2023-06-11T11:43:45.885Z,1.38
2023-06-11T11:46:18.249Z,1.60
2023-06-11T11:48:46.405Z,1.10
2023-06-11T11:51:16.319Z,1.20
2023-06-11T11:53:45.839Z,1.17
2023-06-11T11:56:14.711Z,0.80
2023-06-11T11:58:43.683Z,0.98
2023-06-11T12:01:22.828Z,1.10
2023-06-11T12:03:58.179Z,1.10
2023-06-11T12:06:26.401Z,1.05
2023-06-11T12:08:55.649Z,0.95
2023-06-11T12:11:23.560Z,1.10
2023-06-11T12:13:51.375Z,1.08
2023-06-11T12:16:19.172Z,0.98
2023-06-11T12:18:46.928Z,1.40
2023-06-11T12:21:14.787Z,0.82
2023-06-11T12:23:42.515Z,0.93
2023-06-11T12:26:11.649Z,0.93
2023-06-11T12:28:39.612Z,0.70
2023-06-11T12:31:07.803Z,0.77
2023-06-11T12:33:35.871Z,1.10
2023-06-11T12:36:03.613Z,1.05
2023-06-11T12:38:31.358Z,1.00
2023-06-11T12:40:59.243Z,1.25
2023-06-11T12:43:28.358Z,1.00
2023-06-11T12:45:56.138Z,1.15
2023-06-11T12:48:23.916Z,1.00
2023-06-11T12:50:51.810Z,1.08
2023-06-11T12:53:19.575Z,0.90
2023-06-11T12:55:47.446Z,1.13
2023-06-11T12:58:15.276Z,0.90
2023-06-11T13:00:44.457Z,0.65
2023-06-11T13:03:12.252Z,0.90
2023-06-11T13:05:40.077Z,1.40
2023-06-11T13:08:07.919Z,0.95
2023-06-11T13:10:35.868Z,1.38
2023-06-11T13:13:03.849Z,0.68
2023-06-11T13:15:31.624Z,1.25
2023-06-11T13:18:00.882Z,1.33
2023-06-11T13:20:29.895Z,1.17
2023-06-11T13:22:57.736Z,0.88
2023-06-11T13:25:25.482Z,1.33
2023-06-11T13:27:53.186Z,0.98
2023-06-11T13:30:20.962Z,0.75
2023-06-11T13:32:48.919Z,0.93
2023-06-11T13:35:18.102Z,1.13
2023-06-11T13:37:45.913Z,1.42
2023-06-11T13:40:14.308Z,1.00
2023-06-11T13:42:42.323Z,0.85
2023-06-11T13:45:10.738Z,1.00
2023-06-11T13:47:38.516Z,1.60
2023-06-11T13:50:07.334Z,1.00
2023-06-11T13:52:36.462Z,1.15
2023-06-11T13:55:04.444Z,0.85
2023-06-11T13:57:32.434Z,1.08
2023-06-11T14:00:01.429Z,0.85
2023-06-11T14:02:29.331Z,0.90
2023-06-11T14:04:57.133Z,1.20
2023-06-11T14:07:24.976Z,0.93
2023-06-11T14:09:55.354Z,0.90
2023-06-11T14:12:23.494Z,1.15
2023-06-11T14:14:51.406Z,1.35
2023-06-11T14:17:19.527Z,1.23
2023-06-11T14:19:47.293Z,0.93
2023-06-11T14:22:15.428Z,0.95
2023-06-11T14:24:43.210Z,0.70
2023-06-11T14:27:12.240Z,1.02
2023-06-11T14:29:39.982Z,1.30
2023-06-11T14:32:08.825Z,1.27
2023-06-11T14:34:36.602Z,1.05
2023-06-11T14:37:04.852Z,1.05
2023-06-11T14:39:32.722Z,0.95
2023-06-11T14:42:00.794Z,1.23
2023-06-11T14:44:29.896Z,0.93
2023-06-11T14:46:57.679Z,1.02
2023-06-11T14:49:25.689Z,1.10
2023-06-11T14:51:53.544Z,1.25
2023-06-11T14:54:21.311Z,1.30
2023-06-11T14:56:49.044Z,0.90
2023-06-11T14:59:17.055Z,0.90
2023-06-11T15:01:46.300Z,0.90
2023-06-11T15:04:14.123Z,1.20
2023-06-11T15:06:42.209Z,1.10
2023-06-11T15:09:10.590Z,1.10
2023-06-11T15:11:38.536Z,1.08
2023-06-11T15:14:06.726Z,0.80
2023-06-11T15:16:34.604Z,0.70
2023-06-11T15:19:03.775Z,1.05
2023-06-11T15:21:31.757Z,0.80
2023-06-11T15:23:59.507Z,1.10
2023-06-11T15:26:27.238Z,0.80
2023-06-11T15:28:54.972Z,1.02
2023-06-11T15:31:22.819Z,0.90
2023-06-11T15:33:50.655Z,1.20
2023-06-11T15:36:21.019Z,0.85
2023-06-11T15:38:48.812Z,1.05
2023-06-11T15:41:16.627Z,0.80
2023-06-11T15:43:44.425Z,1.20
2023-06-11T15:46:12.365Z,0.60
2023-06-11T15:48:40.182Z,1.23
2023-06-11T15:51:07.914Z,1.20
2023-06-11T15:53:37.047Z,1.00
2023-06-11T15:56:05.065Z,1.13
2023-06-11T15:58:32.830Z,0.90
2023-06-11T16:01:00.611Z,1.10
2023-06-11T16:03:28.472Z,1.00
2023-06-11T16:05:56.283Z,1.02
2023-06-11T16:08:24.083Z,1.00
2023-06-11T16:10:53.195Z,1.50
2023-06-11T16:13:20.955Z,0.90
2023-06-11T16:15:48.774Z,1.13
2023-06-11T16:18:16.634Z,1.33
2023-06-11T16:20:44.476Z,1.17
2023-06-11T16:23:12.254Z,1.38
2023-06-11T16:25:40.063Z,1.33
2023-06-11T16:28:09.164Z,1.30
2023-06-11T16:30:36.961Z,1.05
2023-06-11T16:33:04.857Z,2.65
2023-06-11T16:35:32.799Z,1.42
2023-06-11T16:38:00.625Z,1.38
2023-06-11T16:40:28.329Z,1.20
2023-06-11T16:42:56.141Z,1.55
2023-06-11T16:45:25.250Z,1.25
2023-06-11T16:47:53.040Z,1.27
2023-06-11T16:50:20.818Z,1.67
2023-06-11T16:52:52.721Z,1.80
2023-06-11T16:55:21.831Z,1.95
2023-06-11T16:57:50.313Z,1.77
2023-06-11T17:00:18.995Z,1.52
2023-06-11T17:02:50.426Z,1.65
2023-06-11T17:05:18.606Z,1.83
2023-06-11T17:07:46.348Z,1.88
2023-06-11T17:10:14.352Z,1.70
2023-06-11T17:12:46.833Z,1.60
2023-06-11T17:15:17.215Z,1.42
2023-06-11T17:17:45.526Z,1.50
2023-06-11T17:20:16.113Z,1.88
2023-06-11T17:25:33.119Z,1.65
2023-06-11T17:28:01.377Z,1.40
2023-06-11T17:30:29.251Z,2.30
2023-06-11T17:32:57.088Z,2.83
2023-06-11T17:35:24.944Z,1.95
2023-06-11T17:37:55.098Z,1.50
2023-06-11T17:40:28.394Z,1.70
2023-06-11T17:42:59.146Z,1.27
2023-06-11T17:45:29.361Z,2.08
2023-06-11T17:47:57.274Z,2.05
2023-06-11T17:50:25.963Z,1.60
2023-06-11T17:52:53.989Z,1.85
2023-06-11T17:55:21.732Z,1.67
2023-06-11T17:57:49.869Z,1.42
2023-06-11T18:00:19.555Z,2.20
2023-06-11T18:02:48.076Z,1.75
2023-06-11T18:05:15.988Z,1.55
2023-06-11T18:07:47.086Z,1.58
2023-06-11T18:10:16.202Z,1.40
2023-06-11T18:12:45.733Z,1.85
2023-06-11T18:15:31.132Z,2.08
2023-06-11T18:18:01.436Z,2.35
2023-06-11T18:20:30.020Z,2.00
2023-06-11T18:22:58.197Z,2.30
2023-06-11T18:25:26.541Z,2.47
2023-06-11T18:27:54.566Z,2.10
2023-06-11T18:30:22.806Z,1.90
2023-06-11T18:32:50.778Z,2.10
2023-06-11T18:35:20.029Z,1.50
2023-06-11T18:37:48.245Z,2.22
2023-06-11T18:40:16.408Z,1.75
2023-06-11T18:42:44.348Z,1.67
2023-06-11T18:45:12.943Z,1.77
2023-06-11T18:47:41.126Z,1.70
2023-06-11T18:50:11.041Z,1.75
2023-06-11T18:52:40.784Z,2.00
2023-06-11T18:55:09.303Z,2.08
2023-06-11T18:57:37.062Z,1.90
2023-06-11T19:00:05.962Z,2.65
2023-06-11T19:02:33.887Z,2.13
2023-06-11T19:05:01.717Z,1.83
2023-06-11T19:07:31.215Z,1.90
2023-06-11T19:10:00.428Z,1.98
2023-06-11T19:12:28.232Z,2.05
2023-06-11T19:14:55.990Z,2.47
2023-06-11T19:17:23.918Z,2.33
2023-06-11T19:19:51.719Z,2.58
2023-06-11T19:22:19.570Z,2.55
2023-06-11T19:24:47.349Z,2.53
2023-06-11T19:27:16.773Z,2.03
2023-06-11T19:29:44.534Z,2.38
2023-06-11T19:32:12.715Z,2.55
2023-06-11T19:34:40.543Z,2.10
2023-06-11T19:37:08.488Z,2.30
2023-06-11T19:39:36.188Z,1.83
2023-06-11T19:42:04.217Z,2.10
2023-06-11T19:44:33.962Z,2.20
2023-06-11T19:47:01.790Z,2.40
2023-06-11T19:49:29.574Z,1.80
2023-06-11T19:51:57.590Z,1.73
2023-06-11T19:54:41.321Z,2.50
2023-06-11T19:57:14.227Z,2.28
2023-06-11T19:59:43.335Z,2.15
2023-06-11T20:02:11.135Z,2.03
2023-06-11T20:04:38.919Z,2.53
2023-06-11T20:07:08.059Z,2.75
2023-06-11T20:09:36.184Z,1.77
2023-06-11T20:12:07.926Z,2.08
2023-06-11T20:14:36.830Z,1.75
2023-06-11T20:17:06.424Z,1.95
2023-06-11T20:19:36.857Z,2.00
2023-06-11T20:22:05.244Z,1.80
2023-06-11T20:24:33.669Z,2.00
2023-06-11T20:27:01.471Z,2.58
2023-06-11T20:29:29.204Z,2.10
2023-06-11T20:31:57.021Z,2.20
2023-06-11T20:34:26.371Z,2.10
2023-06-11T20:36:54.149Z,1.70
2023-06-11T20:39:21.909Z,2.10
2023-06-11T20:41:49.645Z,2.40
2023-06-11T20:44:17.752Z,2.35
2023-06-11T20:46:45.519Z,2.08
2023-06-11T20:49:13.331Z,2.03
2023-06-11T20:51:42.498Z,2.20
2023-06-11T20:54:10.318Z,1.63
2023-06-11T20:56:38.042Z,1.80
2023-06-11T20:59:07.417Z,2.42
2023-06-11T21:01:36.537Z,1.90
2023-06-11T21:04:04.691Z,2.03
2023-06-11T21:06:32.582Z,1.90
2023-06-11T21:09:02.553Z,2.35
2023-06-11T21:11:30.266Z,1.85
2023-06-11T21:14:12.536Z,2.35
2023-06-11T21:16:41.260Z,1.88
2023-06-11T21:19:09.155Z,1.80
2023-06-11T21:21:37.721Z,2.33
2023-06-11T21:24:07.758Z,2.20
2023-06-11T21:26:35.802Z,2.15
2023-06-11T21:29:03.748Z,2.20
2023-06-11T21:31:31.557Z,1.60
2023-06-11T21:33:59.934Z,1.77
2023-06-11T21:36:27.700Z,2.33
2023-06-11T21:38:55.730Z,1.65
2023-06-11T21:41:24.920Z,1.75
2023-06-11T21:43:52.684Z,2.10
2023-06-11T21:46:20.603Z,1.70
2023-06-11T21:48:49.196Z,2.13
2023-06-11T21:51:17.522Z,1.50
2023-06-11T21:53:45.318Z,1.60
2023-06-11T21:56:13.338Z,2.03
2023-06-11T21:58:42.538Z,2.03
2023-06-11T22:01:10.283Z,2.08
2023-06-11T22:03:38.105Z,1.50
2023-06-11T22:06:05.967Z,2.25
2023-06-11T22:08:35.831Z,1.65
2023-06-11T22:11:03.666Z,1.70
2023-06-11T22:13:31.508Z,2.20
2023-06-11T22:16:00.683Z,1.58
2023-06-11T22:18:29.376Z,1.52
2023-06-11T22:20:57.526Z,1.63
2023-06-11T22:23:40.754Z,1.55
2023-06-11T22:26:13.048Z,1.92
2023-06-11T22:28:40.815Z,2.00
2023-06-11T22:31:09.963Z,1.67
2023-06-11T22:33:37.800Z,1.67
2023-06-11T22:36:06.280Z,1.77
2023-06-11T22:38:34.048Z,1.67
2023-06-11T22:41:01.800Z,1.65
2023-06-11T22:43:29.587Z,2.38
2023-06-11T22:45:57.349Z,1.52
2023-06-11T22:48:26.455Z,1.75
2023-06-11T22:50:54.383Z,1.65
2023-06-11T22:53:22.625Z,1.50
2023-06-11T22:55:50.392Z,1.80
2023-06-11T22:58:18.556Z,1.48
2023-06-11T23:00:46.330Z,1.98
2023-06-11T23:03:14.097Z,2.03
2023-06-11T23:05:43.274Z,1.38
2023-06-11T23:08:11.043Z,1.67
2023-06-11T23:10:38.832Z,2.20
2023-06-11T23:13:06.577Z,1.50
2023-06-11T23:15:34.334Z,1.65
2023-06-11T23:18:06.829Z,2.20
2023-06-11T23:23:06.866Z,1.63
2023-06-11T23:25:34.888Z,1.67
2023-06-11T23:28:02.670Z,1.50
2023-06-11T23:30:30.985Z,1.75
2023-06-11T23:33:00.872Z,1.67
2023-06-11T23:35:28.824Z,2.15
2023-06-11T23:37:57.727Z,1.70
2023-06-11T23:40:26.909Z,1.73
2023-06-11T23:42:54.716Z,2.03
2023-06-11T23:45:22.528Z,1.38
2023-06-11T23:47:50.615Z,1.33
2023-06-11T23:50:18.523Z,1.38
2023-06-11T23:52:46.249Z,1.10
2023-06-11T23:55:14.163Z,1.08
2023-06-11T23:57:44.761Z,1.42
